TVS2DZ LKPR-LFPG
Flight info
| Callsign | TVS2DZ |
|---|---|
| Flight time | 1h 25m |
| Altitude | 32000 |
| Route | BALTU DCT DONAD DCT RAPET Z93 KODUK DCT MARZA DCT LOHRE DCT BOMBI DCT BETEX DCT IDOSA UN857 TOLVU/N0421F330 DCT RAPOR DCT VEDUS |
| Aircraft | A320/M-SDE3FGHIRWY/LB1 |
Departure
| Time | 2026-05-05 15:41 |
|---|---|
| Airport | Václav Havel Airport Prague (LKPR) |
Arrival
| Time | 2026-05-05 17:06 |
|---|---|
| Airport | Charles de Gaulle International Airport (LFPG) |
| Time | Latitude | Longitude | Altitude | Speed | Heading |
|---|---|---|---|---|---|
| 2026-05-05 15:15 | 50.10595 | 14.26281 | 1177 ft | 0 kts | 34° |
| 2026-05-05 15:29 | 50.10587 | 14.26272 | 1174 ft | 3 kts | 34° |
| 2026-05-05 15:29 | 50.10570 | 14.26254 | 1173 ft | 3 kts | 34° |
| 2026-05-05 15:30 | 50.10555 | 14.26238 | 1173 ft | 3 kts | 20° |
| 2026-05-05 15:30 | 50.10540 | 14.26236 | 1174 ft | 3 kts | 313° |
| 2026-05-05 15:30 | 50.10529 | 14.26258 | 1174 ft | 2 kts | 303° |
| 2026-05-05 15:30 | 50.10522 | 14.26274 | 1174 ft | 3 kts | 304° |
| 2026-05-05 15:31 | 50.10516 | 14.26289 | 1174 ft | 0 kts | 304° |
| 2026-05-05 15:35 | 50.10520 | 14.26279 | 1173 ft | 3 kts | 304° |
| 2026-05-05 15:35 | 50.10532 | 14.26223 | 1173 ft | 7 kts | 248° |
| 2026-05-05 15:35 | 50.10496 | 14.26175 | 1175 ft | 7 kts | 216° |
| 2026-05-05 15:36 | 50.10461 | 14.26137 | 1182 ft | 5 kts | 212° |
| 2026-05-05 15:36 | 50.10424 | 14.26143 | 1187 ft | 8 kts | 153° |
| 2026-05-05 15:36 | 50.10376 | 14.26237 | 1189 ft | 15 kts | 127° |
| 2026-05-05 15:36 | 50.10297 | 14.26393 | 1192 ft | 21 kts | 129° |
| 2026-05-05 15:37 | 50.10205 | 14.26588 | 1196 ft | 22 kts | 126° |
| 2026-05-05 15:37 | 50.10112 | 14.26781 | 1199 ft | 22 kts | 127° |
| 2026-05-05 15:37 | 50.10025 | 14.26970 | 1203 ft | 21 kts | 126° |
| 2026-05-05 15:37 | 50.09936 | 14.27145 | 1206 ft | 21 kts | 128° |
| 2026-05-05 15:38 | 50.09844 | 14.27332 | 1205 ft | 22 kts | 131° |
| 2026-05-05 15:38 | 50.09733 | 14.27504 | 1206 ft | 23 kts | 135° |
| 2026-05-05 15:38 | 50.09613 | 14.27681 | 1208 ft | 25 kts | 137° |
| 2026-05-05 15:38 | 50.09490 | 14.27871 | 1214 ft | 24 kts | 135° |
| 2026-05-05 15:39 | 50.09380 | 14.28044 | 1219 ft | 21 kts | 134° |
| 2026-05-05 15:39 | 50.09283 | 14.28193 | 1224 ft | 14 kts | 136° |
| 2026-05-05 15:39 | 50.09224 | 14.28274 | 1227 ft | 10 kts | 150° |
| 2026-05-05 15:39 | 50.09158 | 14.28275 | 1247 ft | 12 kts | 201° |
| 2026-05-05 15:40 | 50.09097 | 14.28204 | 1236 ft | 10 kts | 229° |
| 2026-05-05 15:40 | 50.09082 | 14.28099 | 1233 ft | 11 kts | 291° |
| 2026-05-05 15:40 | 50.09134 | 14.27987 | 1233 ft | 21 kts | 307° |
| 2026-05-05 15:40 | 50.09372 | 14.27501 | 1221 ft | 93 kts | 306° |
| 2026-05-05 15:41 | 50.09891 | 14.26422 | 1207 ft | 153 kts | 307° |
| 2026-05-05 15:41 | 50.10596 | 14.24935 | 1503 ft | 173 kts | 308° |
| 2026-05-05 15:41 | 50.11321 | 14.23405 | 2185 ft | 178 kts | 309° |
| 2026-05-05 15:41 | 50.12060 | 14.21879 | 3005 ft | 178 kts | 310° |
| 2026-05-05 15:42 | 50.12848 | 14.20265 | 3518 ft | 197 kts | 309° |
| 2026-05-05 15:42 | 50.13728 | 14.18464 | 3910 ft | 221 kts | 309° |
| 2026-05-05 15:42 | 50.14691 | 14.16482 | 4437 ft | 238 kts | 308° |
| 2026-05-05 15:42 | 50.15741 | 14.14310 | 4807 ft | 262 kts | 308° |
| 2026-05-05 15:43 | 50.16873 | 14.11962 | 5384 ft | 277 kts | 307° |
| 2026-05-05 15:43 | 50.17874 | 14.09362 | 6195 ft | 285 kts | 290° |
| 2026-05-05 15:43 | 50.18163 | 14.06311 | 6998 ft | 287 kts | 263° |
| 2026-05-05 15:43 | 50.17837 | 14.03253 | 7894 ft | 286 kts | 257° |
| 2026-05-05 15:44 | 50.17520 | 14.00192 | 8798 ft | 288 kts | 265° |
| 2026-05-05 15:44 | 50.17546 | 13.97064 | 9688 ft | 289 kts | 269° |
| 2026-05-05 15:44 | 50.17596 | 13.93907 | 10384 ft | 295 kts | 269° |
| 2026-05-05 15:44 | 50.17645 | 13.90657 | 11005 ft | 304 kts | 269° |
| 2026-05-05 15:45 | 50.17696 | 13.87329 | 11629 ft | 311 kts | 269° |
| 2026-05-05 15:45 | 50.17748 | 13.83904 | 12274 ft | 319 kts | 269° |
| 2026-05-05 15:45 | 50.17797 | 13.80410 | 12903 ft | 326 kts | 269° |
| 2026-05-05 15:45 | 50.17846 | 13.76823 | 13496 ft | 335 kts | 269° |
| 2026-05-05 15:46 | 50.17899 | 13.73160 | 14027 ft | 342 kts | 269° |
| 2026-05-05 15:46 | 50.17934 | 13.70629 | 14383 ft | 347 kts | 269° |
| 2026-05-05 15:46 | 50.17986 | 13.66833 | 14922 ft | 353 kts | 269° |
| 2026-05-05 15:46 | 50.18041 | 13.62991 | 15463 ft | 358 kts | 269° |
| 2026-05-05 15:47 | 50.18094 | 13.59079 | 16019 ft | 361 kts | 269° |
| 2026-05-05 15:47 | 50.18141 | 13.55156 | 16582 ft | 364 kts | 269° |
| 2026-05-05 15:47 | 50.18176 | 13.52116 | 17023 ft | 366 kts | 269° |
| 2026-05-05 15:47 | 50.18220 | 13.48265 | 17585 ft | 369 kts | 269° |
| 2026-05-05 15:48 | 50.18270 | 13.44249 | 18165 ft | 372 kts | 269° |
| 2026-05-05 15:48 | 50.18322 | 13.40201 | 18677 ft | 375 kts | 269° |
| 2026-05-05 15:48 | 50.18372 | 13.36123 | 19215 ft | 377 kts | 269° |
| 2026-05-05 15:48 | 50.18422 | 13.32012 | 19753 ft | 380 kts | 269° |
| 2026-05-05 15:49 | 50.18468 | 13.27871 | 20277 ft | 384 kts | 268° |
| 2026-05-05 15:49 | 50.18510 | 13.23696 | 20785 ft | 387 kts | 268° |
| 2026-05-05 15:49 | 50.18549 | 13.19472 | 21321 ft | 390 kts | 268° |
| 2026-05-05 15:49 | 50.18586 | 13.15222 | 21831 ft | 393 kts | 268° |
| 2026-05-05 15:50 | 50.18623 | 13.10937 | 22357 ft | 396 kts | 268° |
| 2026-05-05 15:50 | 50.18660 | 13.06622 | 22865 ft | 399 kts | 268° |
| 2026-05-05 15:50 | 50.18697 | 13.02274 | 23341 ft | 402 kts | 268° |
| 2026-05-05 15:50 | 50.18734 | 12.97898 | 23768 ft | 405 kts | 268° |
| 2026-05-05 15:51 | 50.18767 | 12.93492 | 24180 ft | 407 kts | 268° |
| 2026-05-05 15:51 | 50.18799 | 12.89009 | 24601 ft | 408 kts | 268° |
| 2026-05-05 15:51 | 50.18830 | 12.84573 | 25003 ft | 410 kts | 268° |
| 2026-05-05 15:51 | 50.18859 | 12.80123 | 25393 ft | 411 kts | 268° |
| 2026-05-05 15:52 | 50.18885 | 12.75645 | 25777 ft | 413 kts | 268° |
| 2026-05-05 15:52 | 50.18907 | 12.71158 | 26161 ft | 415 kts | 267° |
| 2026-05-05 15:52 | 50.18930 | 12.66651 | 26522 ft | 416 kts | 267° |
| 2026-05-05 15:52 | 50.18952 | 12.62121 | 26886 ft | 418 kts | 267° |
| 2026-05-05 15:53 | 50.18974 | 12.57576 | 27242 ft | 420 kts | 267° |
| 2026-05-05 15:53 | 50.18993 | 12.53013 | 27590 ft | 422 kts | 267° |
| 2026-05-05 15:53 | 50.19009 | 12.48430 | 27943 ft | 423 kts | 267° |
| 2026-05-05 15:53 | 50.19023 | 12.43825 | 28271 ft | 425 kts | 267° |
| 2026-05-05 15:54 | 50.19035 | 12.39206 | 28595 ft | 427 kts | 267° |
| 2026-05-05 15:54 | 50.19046 | 12.34571 | 28906 ft | 428 kts | 266° |
| 2026-05-05 15:54 | 50.19049 | 12.29914 | 29218 ft | 430 kts | 266° |
| 2026-05-05 15:54 | 50.19038 | 12.25239 | 29529 ft | 431 kts | 266° |
| 2026-05-05 15:55 | 50.19017 | 12.20551 | 29830 ft | 433 kts | 266° |
| 2026-05-05 15:55 | 50.18993 | 12.15849 | 30091 ft | 435 kts | 266° |
| 2026-05-05 15:55 | 50.18968 | 12.11125 | 30331 ft | 436 kts | 266° |
| 2026-05-05 15:55 | 50.18945 | 12.06392 | 30551 ft | 438 kts | 266° |
| 2026-05-05 15:56 | 50.18926 | 12.01634 | 30794 ft | 438 kts | 266° |
| 2026-05-05 15:56 | 50.18906 | 11.96875 | 31102 ft | 438 kts | 266° |
| 2026-05-05 15:56 | 50.18882 | 11.92140 | 31393 ft | 437 kts | 266° |
| 2026-05-05 15:56 | 50.18850 | 11.87406 | 31682 ft | 436 kts | 266° |
| 2026-05-05 15:57 | 50.18814 | 11.82672 | 31812 ft | 434 kts | 265° |
| 2026-05-05 15:57 | 50.18859 | 11.73413 | 31833 ft | 423 kts | 268° |
| 2026-05-05 15:58 | 50.19028 | 11.64257 | 31802 ft | 422 kts | 268° |
| 2026-05-05 15:58 | 50.19178 | 11.55039 | 31798 ft | 422 kts | 268° |
| 2026-05-05 15:59 | 50.19295 | 11.45881 | 31789 ft | 422 kts | 267° |
| 2026-05-05 15:59 | 50.19400 | 11.36730 | 31790 ft | 422 kts | 267° |
| 2026-05-05 16:00 | 50.19497 | 11.27567 | 31781 ft | 423 kts | 267° |
| 2026-05-05 16:00 | 50.19545 | 11.22951 | 31888 ft | 428 kts | 267° |
| 2026-05-05 16:00 | 50.19591 | 11.18297 | 32114 ft | 430 kts | 267° |
| 2026-05-05 16:00 | 50.19633 | 11.13623 | 32401 ft | 431 kts | 267° |
| 2026-05-05 16:01 | 50.19672 | 11.08943 | 32709 ft | 430 kts | 267° |
| 2026-05-05 16:01 | 50.19707 | 11.04268 | 32912 ft | 433 kts | 266° |
| 2026-05-05 16:01 | 50.19737 | 10.99570 | 33144 ft | 434 kts | 266° |
| 2026-05-05 16:01 | 50.19745 | 10.94862 | 33430 ft | 432 kts | 263° |
| 2026-05-05 16:02 | 50.19450 | 10.90226 | 33726 ft | 429 kts | 259° |
| 2026-05-05 16:02 | 50.19060 | 10.85613 | 34003 ft | 428 kts | 258° |
| 2026-05-05 16:02 | 50.18669 | 10.81016 | 34265 ft | 428 kts | 258° |
| 2026-05-05 16:02 | 50.18280 | 10.76410 | 34511 ft | 427 kts | 259° |
| 2026-05-05 16:03 | 50.17894 | 10.71823 | 34736 ft | 427 kts | 258° |
| 2026-05-05 16:03 | 50.17505 | 10.67231 | 34967 ft | 427 kts | 258° |
| 2026-05-05 16:03 | 50.17114 | 10.62645 | 35185 ft | 426 kts | 258° |
| 2026-05-05 16:03 | 50.16725 | 10.58071 | 35435 ft | 425 kts | 258° |
| 2026-05-05 16:04 | 50.16331 | 10.53500 | 35644 ft | 425 kts | 258° |
| 2026-05-05 16:04 | 50.15898 | 10.48945 | 35810 ft | 424 kts | 253° |
| 2026-05-05 16:04 | 50.15194 | 10.44498 | 35992 ft | 423 kts | 253° |
| 2026-05-05 16:04 | 50.14557 | 10.40020 | 36180 ft | 423 kts | 254° |
| 2026-05-05 16:05 | 50.13928 | 10.35531 | 36365 ft | 423 kts | 254° |
| 2026-05-05 16:05 | 50.13305 | 10.31088 | 36547 ft | 423 kts | 254° |
| 2026-05-05 16:05 | 50.12675 | 10.26609 | 36753 ft | 423 kts | 254° |
| 2026-05-05 16:05 | 50.12044 | 10.22142 | 36923 ft | 422 kts | 254° |
| 2026-05-05 16:06 | 50.11409 | 10.17674 | 37114 ft | 422 kts | 254° |
| 2026-05-05 16:06 | 50.10537 | 10.13357 | 37314 ft | 417 kts | 245° |
| 2026-05-05 16:06 | 50.09548 | 10.09664 | 37492 ft | 416 kts | 244° |
| 2026-05-05 16:06 | 50.08407 | 10.05501 | 37685 ft | 415 kts | 244° |
| 2026-05-05 16:07 | 50.07253 | 10.01315 | 37792 ft | 416 kts | 244° |
| 2026-05-05 16:07 | 50.04974 | 9.93006 | 37799 ft | 419 kts | 248° |
| 2026-05-05 16:07 | 50.04322 | 9.88580 | 37810 ft | 423 kts | 263° |
| 2026-05-05 16:08 | 50.04318 | 9.83975 | 37813 ft | 427 kts | 268° |
| 2026-05-05 16:08 | 50.04472 | 9.74750 | 37821 ft | 427 kts | 268° |
| 2026-05-05 16:09 | 50.04636 | 9.65508 | 37823 ft | 427 kts | 268° |
| 2026-05-05 16:09 | 50.04746 | 9.58684 | 37827 ft | 428 kts | 268° |
| 2026-05-05 16:10 | 50.04747 | 9.55589 | 37813 ft | 424 kts | 261° |
| 2026-05-05 16:10 | 50.04597 | 9.46591 | 37833 ft | 427 kts | 268° |
| 2026-05-05 16:11 | 50.04906 | 9.37356 | 37828 ft | 428 kts | 270° |
| 2026-05-05 16:12 | 50.05330 | 9.18852 | 37828 ft | 427 kts | 267° |
| 2026-05-05 16:13 | 50.05485 | 8.98587 | 37832 ft | 428 kts | 267° |
| 2026-05-05 16:13 | 50.05572 | 8.89979 | 37833 ft | 428 kts | 267° |
| 2026-05-05 16:14 | 50.04893 | 8.71604 | 37836 ft | 424 kts | 258° |
| 2026-05-05 16:15 | 50.03219 | 8.53363 | 37833 ft | 425 kts | 259° |
| 2026-05-05 16:16 | 50.01505 | 8.35177 | 37863 ft | 425 kts | 258° |
| 2026-05-05 16:17 | 50.00208 | 8.21540 | 37859 ft | 425 kts | 258° |
| 2026-05-05 16:18 | 49.99041 | 8.09435 | 37851 ft | 425 kts | 258° |
| 2026-05-05 16:19 | 49.97713 | 7.95808 | 37842 ft | 425 kts | 258° |
| 2026-05-05 16:19 | 49.96357 | 7.82119 | 37829 ft | 426 kts | 258° |
| 2026-05-05 16:20 | 49.94532 | 7.63954 | 37830 ft | 426 kts | 258° |
| 2026-05-05 16:22 | 49.92210 | 7.41223 | 37839 ft | 427 kts | 258° |
| 2026-05-05 16:23 | 49.90319 | 7.23030 | 37837 ft | 427 kts | 258° |
| 2026-05-05 16:23 | 49.88885 | 7.09380 | 37834 ft | 428 kts | 258° |
| 2026-05-05 16:24 | 49.87913 | 7.00301 | 37831 ft | 428 kts | 258° |
| 2026-05-05 16:25 | 49.86444 | 6.86667 | 37817 ft | 428 kts | 258° |
| 2026-05-05 16:25 | 49.84974 | 6.73080 | 37817 ft | 428 kts | 257° |
| 2026-05-05 16:26 | 49.82962 | 6.54834 | 37817 ft | 428 kts | 257° |
| 2026-05-05 16:27 | 49.81950 | 6.45796 | 37817 ft | 428 kts | 257° |
| 2026-05-05 16:27 | 49.80876 | 6.36672 | 37826 ft | 428 kts | 256° |
| 2026-05-05 16:28 | 49.79670 | 6.27644 | 37830 ft | 428 kts | 255° |
| 2026-05-05 16:28 | 49.78436 | 6.18635 | 37831 ft | 428 kts | 255° |
| 2026-05-05 16:29 | 49.77215 | 6.09613 | 37834 ft | 428 kts | 256° |
| 2026-05-05 16:29 | 49.76006 | 6.00592 | 37833 ft | 428 kts | 256° |
| 2026-05-05 16:30 | 49.74786 | 5.91576 | 37831 ft | 428 kts | 255° |
| 2026-05-05 16:30 | 49.73190 | 5.82755 | 37828 ft | 426 kts | 248° |
| 2026-05-05 16:31 | 49.71193 | 5.74140 | 37829 ft | 426 kts | 248° |
| 2026-05-05 16:31 | 49.69188 | 5.65526 | 37819 ft | 426 kts | 248° |
| 2026-05-05 16:32 | 49.67174 | 5.56921 | 37822 ft | 426 kts | 248° |
| 2026-05-05 16:32 | 49.65154 | 5.48304 | 37095 ft | 430 kts | 247° |
| 2026-05-05 16:33 | 49.64125 | 5.43952 | 36184 ft | 434 kts | 247° |
| 2026-05-05 16:33 | 49.63089 | 5.39571 | 35341 ft | 436 kts | 246° |
| 2026-05-05 16:33 | 49.62057 | 5.35173 | 34532 ft | 437 kts | 247° |
| 2026-05-05 16:33 | 49.61069 | 5.30743 | 33835 ft | 437 kts | 247° |
| 2026-05-05 16:34 | 49.60108 | 5.26227 | 32880 ft | 438 kts | 248° |
| 2026-05-05 16:34 | 49.59403 | 5.21714 | 31922 ft | 446 kts | 257° |
| 2026-05-05 16:34 | 49.59191 | 5.16853 | 31080 ft | 451 kts | 266° |
| 2026-05-05 16:34 | 49.59265 | 5.12043 | 30367 ft | 449 kts | 266° |
| 2026-05-05 16:35 | 49.59317 | 5.07248 | 29675 ft | 445 kts | 266° |
| 2026-05-05 16:35 | 49.59351 | 5.02492 | 28964 ft | 441 kts | 266° |
| 2026-05-05 16:35 | 49.59373 | 4.97804 | 28304 ft | 435 kts | 266° |
| 2026-05-05 16:35 | 49.59392 | 4.93166 | 27715 ft | 430 kts | 266° |
| 2026-05-05 16:36 | 49.59411 | 4.88671 | 27044 ft | 427 kts | 266° |
| 2026-05-05 16:36 | 49.59434 | 4.84127 | 26565 ft | 421 kts | 266° |
| 2026-05-05 16:36 | 49.59462 | 4.79630 | 26046 ft | 417 kts | 267° |
| 2026-05-05 16:36 | 49.59487 | 4.76049 | 25685 ft | 412 kts | 267° |
| 2026-05-05 16:37 | 49.59517 | 4.71714 | 25524 ft | 399 kts | 267° |
| 2026-05-05 16:37 | 49.59542 | 4.67475 | 25157 ft | 393 kts | 267° |
| 2026-05-05 16:37 | 49.59562 | 4.63284 | 24703 ft | 389 kts | 267° |
| 2026-05-05 16:37 | 49.59578 | 4.59131 | 24228 ft | 386 kts | 268° |
| 2026-05-05 16:38 | 49.59593 | 4.55010 | 23770 ft | 383 kts | 268° |
| 2026-05-05 16:38 | 49.59607 | 4.50917 | 23289 ft | 381 kts | 268° |
| 2026-05-05 16:38 | 49.59621 | 4.46844 | 22751 ft | 378 kts | 268° |
| 2026-05-05 16:38 | 49.59633 | 4.42803 | 22260 ft | 376 kts | 268° |
| 2026-05-05 16:39 | 49.59644 | 4.38788 | 21788 ft | 374 kts | 268° |
| 2026-05-05 16:39 | 49.59652 | 4.34797 | 21311 ft | 371 kts | 268° |
| 2026-05-05 16:39 | 49.59659 | 4.30829 | 20839 ft | 369 kts | 268° |
| 2026-05-05 16:39 | 49.59665 | 4.26884 | 20359 ft | 367 kts | 268° |
| 2026-05-05 16:40 | 49.59666 | 4.22963 | 19888 ft | 365 kts | 268° |
| 2026-05-05 16:40 | 49.59668 | 4.19065 | 19422 ft | 363 kts | 268° |
| 2026-05-05 16:40 | 49.59669 | 4.15192 | 18971 ft | 361 kts | 268° |
| 2026-05-05 16:40 | 49.59399 | 4.11372 | 18524 ft | 357 kts | 255° |
| 2026-05-05 16:41 | 49.58590 | 4.07793 | 18102 ft | 353 kts | 243° |
| 2026-05-05 16:41 | 49.57295 | 4.04610 | 17599 ft | 350 kts | 230° |
| 2026-05-05 16:41 | 49.55607 | 4.01938 | 17105 ft | 347 kts | 218° |
| 2026-05-05 16:41 | 49.53673 | 3.99636 | 16610 ft | 346 kts | 217° |
| 2026-05-05 16:42 | 49.51789 | 3.97424 | 16209 ft | 344 kts | 217° |
| 2026-05-05 16:42 | 49.49860 | 3.95163 | 15790 ft | 343 kts | 217° |
| 2026-05-05 16:42 | 49.47968 | 3.92946 | 15372 ft | 341 kts | 217° |
| 2026-05-05 16:42 | 49.46084 | 3.90733 | 14908 ft | 340 kts | 217° |
| 2026-05-05 16:43 | 49.44203 | 3.88526 | 14450 ft | 340 kts | 217° |
| 2026-05-05 16:43 | 49.42322 | 3.86320 | 13993 ft | 340 kts | 217° |
| 2026-05-05 16:43 | 49.40435 | 3.84112 | 13534 ft | 341 kts | 217° |
| 2026-05-05 16:43 | 49.38554 | 3.81917 | 13019 ft | 340 kts | 216° |
| 2026-05-05 16:44 | 49.36673 | 3.79722 | 12521 ft | 339 kts | 216° |
| 2026-05-05 16:44 | 49.34804 | 3.77539 | 12024 ft | 337 kts | 217° |
| 2026-05-05 16:44 | 49.32939 | 3.75364 | 11546 ft | 336 kts | 216° |
| 2026-05-05 16:44 | 49.31087 | 3.73200 | 11068 ft | 334 kts | 218° |
| 2026-05-05 16:45 | 49.29565 | 3.70541 | 10593 ft | 334 kts | 240° |
| 2026-05-05 16:45 | 49.28822 | 3.67195 | 10213 ft | 331 kts | 260° |
| 2026-05-05 16:45 | 49.28488 | 3.63761 | 9994 ft | 322 kts | 262° |
| 2026-05-05 16:45 | 49.28189 | 3.60410 | 9821 ft | 315 kts | 262° |
| 2026-05-05 16:46 | 49.27894 | 3.57103 | 9647 ft | 313 kts | 262° |
| 2026-05-05 16:46 | 49.27598 | 3.53800 | 9465 ft | 312 kts | 262° |
| 2026-05-05 16:46 | 49.27304 | 3.50517 | 9393 ft | 311 kts | 262° |
| 2026-05-05 16:46 | 49.27007 | 3.47228 | 9387 ft | 312 kts | 262° |
| 2026-05-05 16:47 | 49.26710 | 3.43939 | 9394 ft | 312 kts | 262° |
| 2026-05-05 16:47 | 49.26409 | 3.40614 | 9392 ft | 311 kts | 262° |
| 2026-05-05 16:47 | 49.26109 | 3.37336 | 9393 ft | 311 kts | 262° |
| 2026-05-05 16:47 | 49.25807 | 3.34055 | 9387 ft | 311 kts | 262° |
| 2026-05-05 16:48 | 49.25506 | 3.30780 | 9386 ft | 311 kts | 262° |
| 2026-05-05 16:48 | 49.25204 | 3.27501 | 9395 ft | 311 kts | 262° |
| 2026-05-05 16:48 | 49.24901 | 3.24230 | 9523 ft | 312 kts | 262° |
| 2026-05-05 16:48 | 49.24700 | 3.22051 | 9610 ft | 312 kts | 262° |
| 2026-05-05 16:49 | 49.24295 | 3.17650 | 9778 ft | 313 kts | 262° |
| 2026-05-05 16:49 | 49.23988 | 3.14355 | 9898 ft | 313 kts | 262° |
| 2026-05-05 16:49 | 49.23783 | 3.12170 | 9971 ft | 313 kts | 262° |
| 2026-05-05 16:49 | 49.23369 | 3.07742 | 10025 ft | 314 kts | 262° |
| 2026-05-05 16:50 | 49.23058 | 3.04434 | 9978 ft | 316 kts | 262° |
| 2026-05-05 16:50 | 49.22744 | 3.01086 | 9904 ft | 319 kts | 262° |
| 2026-05-05 16:50 | 49.22425 | 2.97727 | 9856 ft | 319 kts | 262° |
| 2026-05-05 16:50 | 49.22214 | 2.95507 | 9856 ft | 319 kts | 262° |
| 2026-05-05 16:51 | 49.21895 | 2.92144 | 9853 ft | 319 kts | 262° |
| 2026-05-05 16:51 | 49.21681 | 2.89876 | 9858 ft | 319 kts | 262° |
| 2026-05-05 16:51 | 49.21585 | 2.88857 | 9864 ft | 319 kts | 262° |
| 2026-05-05 16:52 | 49.21521 | 2.87992 | 9919 ft | 311 kts | 264° |
| 2026-05-05 16:52 | 49.21417 | 2.86373 | 10068 ft | 311 kts | 263° |
| 2026-05-05 16:52 | 49.21344 | 2.85447 | 10085 ft | 310 kts | 263° |
| 2026-05-05 16:52 | 49.21043 | 2.82000 | 10215 ft | 314 kts | 262° |
| 2026-05-05 16:53 | 49.20745 | 2.78750 | 10070 ft | 304 kts | 262° |
| 2026-05-05 16:53 | 49.20451 | 2.75583 | 9874 ft | 298 kts | 262° |
| 2026-05-05 16:53 | 49.20160 | 2.72457 | 9675 ft | 296 kts | 262° |
| 2026-05-05 16:53 | 49.19871 | 2.69349 | 9465 ft | 295 kts | 262° |
| 2026-05-05 16:54 | 49.19584 | 2.66249 | 9254 ft | 294 kts | 262° |
| 2026-05-05 16:54 | 49.19297 | 2.63160 | 9047 ft | 293 kts | 262° |
| 2026-05-05 16:54 | 49.19011 | 2.60077 | 8832 ft | 292 kts | 262° |
| 2026-05-05 16:54 | 49.18727 | 2.57002 | 8623 ft | 292 kts | 262° |
| 2026-05-05 16:55 | 49.18445 | 2.53941 | 8417 ft | 290 kts | 262° |
| 2026-05-05 16:55 | 49.18161 | 2.50891 | 8212 ft | 289 kts | 262° |
| 2026-05-05 16:55 | 49.17878 | 2.47847 | 8005 ft | 289 kts | 262° |
| 2026-05-05 16:55 | 49.17555 | 2.44821 | 7801 ft | 288 kts | 256° |
| 2026-05-05 16:56 | 49.16996 | 2.41889 | 7597 ft | 287 kts | 252° |
| 2026-05-05 16:56 | 49.16390 | 2.38983 | 7397 ft | 286 kts | 252° |
| 2026-05-05 16:56 | 49.15772 | 2.36052 | 7197 ft | 285 kts | 252° |
| 2026-05-05 16:56 | 49.15163 | 2.33174 | 6990 ft | 285 kts | 252° |
| 2026-05-05 16:57 | 49.14556 | 2.30303 | 6802 ft | 283 kts | 252° |
| 2026-05-05 16:57 | 49.13956 | 2.27471 | 6602 ft | 276 kts | 251° |
| 2026-05-05 16:57 | 49.13111 | 2.24908 | 6409 ft | 267 kts | 235° |
| 2026-05-05 16:57 | 49.12117 | 2.22835 | 6226 ft | 261 kts | 232° |
| 2026-05-05 16:58 | 49.11020 | 2.20649 | 6021 ft | 259 kts | 232° |
| 2026-05-05 16:58 | 49.09922 | 2.18473 | 5812 ft | 258 kts | 232° |
| 2026-05-05 16:58 | 49.08829 | 2.16311 | 5610 ft | 256 kts | 232° |
| 2026-05-05 16:58 | 49.07734 | 2.14224 | 5394 ft | 248 kts | 224° |
| 2026-05-05 16:59 | 49.06338 | 2.12781 | 5204 ft | 243 kts | 200° |
| 2026-05-05 16:59 | 49.04689 | 2.12363 | 5004 ft | 240 kts | 174° |
| 2026-05-05 16:59 | 49.03110 | 2.13049 | 5003 ft | 237 kts | 149° |
| 2026-05-05 16:59 | 49.01786 | 2.14531 | 5004 ft | 233 kts | 139° |
| 2026-05-05 17:00 | 49.00568 | 2.16025 | 4998 ft | 216 kts | 139° |
| 2026-05-05 17:00 | 48.99443 | 2.17402 | 5000 ft | 200 kts | 139° |
| 2026-05-05 17:00 | 48.98392 | 2.18730 | 5048 ft | 195 kts | 133° |
| 2026-05-05 17:00 | 48.97643 | 2.20415 | 4869 ft | 192 kts | 110° |
| 2026-05-05 17:01 | 48.97403 | 2.22381 | 4658 ft | 189 kts | 87° |
| 2026-05-05 17:01 | 48.97508 | 2.24367 | 4418 ft | 188 kts | 84° |
| 2026-05-05 17:01 | 48.97621 | 2.26336 | 4174 ft | 186 kts | 84° |
| 2026-05-05 17:01 | 48.97733 | 2.28304 | 3915 ft | 187 kts | 84° |
| 2026-05-05 17:02 | 48.97841 | 2.30220 | 3672 ft | 187 kts | 84° |
| 2026-05-05 17:02 | 48.97950 | 2.32161 | 3426 ft | 181 kts | 84° |
| 2026-05-05 17:02 | 48.98056 | 2.34066 | 3179 ft | 175 kts | 84° |
| 2026-05-05 17:02 | 48.98154 | 2.35828 | 2962 ft | 170 kts | 84° |
| 2026-05-05 17:03 | 48.98253 | 2.37604 | 2730 ft | 166 kts | 84° |
| 2026-05-05 17:03 | 48.98348 | 2.39312 | 2509 ft | 162 kts | 84° |
| 2026-05-05 17:03 | 48.98441 | 2.41002 | 2284 ft | 153 kts | 84° |
| 2026-05-05 17:03 | 48.98528 | 2.42574 | 2090 ft | 148 kts | 84° |
| 2026-05-05 17:04 | 48.98614 | 2.44135 | 1896 ft | 149 kts | 84° |
| 2026-05-05 17:04 | 48.98701 | 2.45723 | 1695 ft | 151 kts | 84° |
| 2026-05-05 17:04 | 48.98786 | 2.47273 | 1498 ft | 143 kts | 85° |
| 2026-05-05 17:04 | 48.98867 | 2.48756 | 1304 ft | 140 kts | 85° |
| 2026-05-05 17:05 | 48.98953 | 2.50230 | 1134 ft | 139 kts | 83° |
| 2026-05-05 17:05 | 48.99031 | 2.51700 | 966 ft | 138 kts | 82° |
| 2026-05-05 17:05 | 48.99111 | 2.53152 | 829 ft | 138 kts | 82° |
| 2026-05-05 17:05 | 48.99186 | 2.54588 | 664 ft | 139 kts | 81° |
| 2026-05-05 17:06 | 48.99263 | 2.56058 | 480 ft | 140 kts | 81° |
| 2026-05-05 17:06 | 48.99347 | 2.57490 | 351 ft | 121 kts | 83° |
| 2026-05-05 17:06 | 48.99398 | 2.58507 | 361 ft | 72 kts | 86° |
| 2026-05-05 17:06 | 48.99431 | 2.59075 | 351 ft | 34 kts | 83° |
| 2026-05-05 17:07 | 48.99485 | 2.59307 | 355 ft | 21 kts | 65° |
| 2026-05-05 17:07 | 48.99538 | 2.59482 | 357 ft | 17 kts | 65° |
| 2026-05-05 17:07 | 48.99586 | 2.59638 | 357 ft | 15 kts | 64° |
| 2026-05-05 17:07 | 48.99645 | 2.59694 | 358 ft | 10 kts | 1° |
| 2026-05-05 17:08 | 48.99686 | 2.59687 | 354 ft | 3 kts | 353° |
| 2026-05-05 17:08 | 48.99701 | 2.59686 | 354 ft | 2 kts | 356° |
| 2026-05-05 17:08 | 48.99738 | 2.59682 | 354 ft | 14 kts | 356° |
| 2026-05-05 17:08 | 48.99870 | 2.59664 | 353 ft | 20 kts | 355° |
| 2026-05-05 17:09 | 48.99998 | 2.59651 | 354 ft | 17 kts | 356° |
| 2026-05-05 17:09 | 49.00104 | 2.59639 | 354 ft | 14 kts | 356° |
| 2026-05-05 17:09 | 49.00190 | 2.59628 | 354 ft | 11 kts | 353° |
| 2026-05-05 17:09 | 49.00218 | 2.59623 | 354 ft | 0 kts | 353° |
| 2026-05-05 17:11 | 49.00224 | 2.59622 | 354 ft | 2 kts | 353° |
| 2026-05-05 17:11 | 49.00254 | 2.59617 | 354 ft | 7 kts | 353° |
| 2026-05-05 17:11 | 49.00317 | 2.59607 | 354 ft | 11 kts | 355° |
| 2026-05-05 17:12 | 49.00411 | 2.59596 | 357 ft | 16 kts | 356° |
| 2026-05-05 17:12 | 49.00531 | 2.59582 | 358 ft | 18 kts | 355° |
| 2026-05-05 17:12 | 49.00653 | 2.59568 | 358 ft | 17 kts | 355° |
| 2026-05-05 17:12 | 49.00762 | 2.59549 | 356 ft | 15 kts | 352° |
| 2026-05-05 17:13 | 49.00860 | 2.59538 | 354 ft | 13 kts | 355° |
| 2026-05-05 17:13 | 49.00893 | 2.59473 | 362 ft | 7 kts | 280° |
| 2026-05-05 17:13 | 49.00882 | 2.59387 | 355 ft | 10 kts | 257° |
| 2026-05-05 17:13 | 49.00879 | 2.59275 | 355 ft | 12 kts | 268° |
| 2026-05-05 17:14 | 49.00871 | 2.59110 | 357 ft | 20 kts | 265° |
| 2026-05-05 17:14 | 49.00858 | 2.58849 | 357 ft | 28 kts | 265° |
| 2026-05-05 17:14 | 49.00841 | 2.58534 | 355 ft | 29 kts | 265° |
| 2026-05-05 17:14 | 49.00824 | 2.58235 | 355 ft | 27 kts | 265° |
| 2026-05-05 17:15 | 49.00810 | 2.57961 | 359 ft | 25 kts | 265° |
| 2026-05-05 17:15 | 49.00797 | 2.57699 | 355 ft | 23 kts | 265° |
| 2026-05-05 17:15 | 49.00783 | 2.57462 | 355 ft | 22 kts | 264° |
| 2026-05-05 17:15 | 49.00757 | 2.57279 | 356 ft | 13 kts | 232° |
| 2026-05-05 17:16 | 49.00698 | 2.57202 | 358 ft | 11 kts | 236° |
| 2026-05-05 17:16 | 49.00667 | 2.57090 | 356 ft | 12 kts | 245° |
| 2026-05-05 17:16 | 49.00640 | 2.56973 | 356 ft | 10 kts | 256° |
| 2026-05-05 17:16 | 49.00630 | 2.56904 | 356 ft | 4 kts | 256° |
| 2026-05-05 17:17 | 49.00613 | 2.56870 | 357 ft | 7 kts | 219° |
| 2026-05-05 17:17 | 49.00581 | 2.56841 | 355 ft | 3 kts | 211° |
| 2026-05-05 17:17 | 49.00576 | 2.56836 | 362 ft | 0 kts | 211° |
| 2026-05-05 17:17 | 49.00568 | 2.56829 | 361 ft | 3 kts | 211° |
| 2026-05-05 17:18 | 49.00551 | 2.56813 | 355 ft | 0 kts | 212° |